sensor_id;sensor_type;location;lat;lon;timestamp;P1;durP1;ratioP1;P2;durP2;ratioP2
42092;SDS011;28974;50.316;18.960;2023-10-09T00:01:28;70.50;;;35.05;;
42092;SDS011;28974;50.316;18.960;2023-10-09T00:13:31;86.13;;;42.30;;
42092;SDS011;28974;50.316;18.960;2023-10-09T00:25:32;43.72;;;17.60;;
42092;SDS011;28974;50.316;18.960;2023-10-09T00:37:36;34.63;;;14.43;;
42092;SDS011;28974;50.316;18.960;2023-10-09T00:49:37;34.95;;;14.27;;
42092;SDS011;28974;50.316;18.960;2023-10-09T01:01:42;37.33;;;15.02;;
42092;SDS011;28974;50.316;18.960;2023-10-09T01:13:50;44.88;;;16.08;;
42092;SDS011;28974;50.316;18.960;2023-10-09T01:25:50;39.30;;;14.38;;
42092;SDS011;28974;50.316;18.960;2023-10-09T01:37:51;115.97;;;52.47;;
42092;SDS011;28974;50.316;18.960;2023-10-09T01:49:51;68.70;;;24.98;;
42092;SDS011;28974;50.316;18.960;2023-10-09T02:01:53;59.10;;;25.45;;
42092;SDS011;28974;50.316;18.960;2023-10-09T02:13:58;51.55;;;23.60;;
42092;SDS011;28974;50.316;18.960;2023-10-09T02:26:01;57.35;;;24.00;;
42092;SDS011;28974;50.316;18.960;2023-10-09T02:38:06;40.47;;;18.00;;
42092;SDS011;28974;50.316;18.960;2023-10-09T02:50:15;44.60;;;18.10;;
42092;SDS011;28974;50.316;18.960;2023-10-09T03:02:21;37.42;;;16.58;;
42092;SDS011;28974;50.316;18.960;2023-10-09T03:14:24;40.67;;;15.85;;
42092;SDS011;28974;50.316;18.960;2023-10-09T03:26:29;38.13;;;14.65;;
42092;SDS011;28974;50.316;18.960;2023-10-09T03:38:31;46.83;;;16.85;;
42092;SDS011;28974;50.316;18.960;2023-10-09T03:50:35;30.40;;;13.35;;
42092;SDS011;28974;50.316;18.960;2023-10-09T04:02:37;31.48;;;11.38;;
42092;SDS011;28974;50.316;18.960;2023-10-09T04:14:38;24.67;;;10.15;;
42092;SDS011;28974;50.316;18.960;2023-10-09T04:26:50;21.17;;;8.95;;
42092;SDS011;28974;50.316;18.960;2023-10-09T04:38:56;27.23;;;8.85;;
42092;SDS011;28974;50.316;18.960;2023-10-09T04:51:16;21.27;;;7.57;;
42092;SDS011;28974;50.316;18.960;2023-10-09T05:03:34;24.55;;;7.80;;
42092;SDS011;28974;50.316;18.960;2023-10-09T05:15:40;14.55;;;7.03;;
42092;SDS011;28974;50.316;18.960;2023-10-09T05:27:46;19.90;;;6.32;;
42092;SDS011;28974;50.316;18.960;2023-10-09T05:39:51;18.05;;;7.20;;
42092;SDS011;28974;50.316;18.960;2023-10-09T05:52:00;22.90;;;7.88;;
42092;SDS011;28974;50.316;18.960;2023-10-09T06:04:20;16.75;;;7.22;;
42092;SDS011;28974;50.316;18.960;2023-10-09T06:16:21;30.40;;;8.90;;
42092;SDS011;28974;50.316;18.960;2023-10-09T06:28:41;23.50;;;8.15;;
42092;SDS011;28974;50.316;18.960;2023-10-09T06:40:50;31.63;;;10.40;;
42092;SDS011;28974;50.316;18.960;2023-10-09T06:53:05;25.80;;;9.13;;
42092;SDS011;28974;50.316;18.960;2023-10-09T07:05:33;15.95;;;6.38;;
42092;SDS011;28974;50.316;18.960;2023-10-09T07:17:54;13.40;;;5.53;;
42092;SDS011;28974;50.316;18.960;2023-10-09T07:29:55;13.77;;;5.30;;
42092;SDS011;28974;50.316;18.960;2023-10-09T07:41:56;13.15;;;4.78;;
42092;SDS011;28974;50.316;18.960;2023-10-09T07:54:01;9.80;;;3.88;;
42092;SDS011;28974;50.316;18.960;2023-10-09T08:06:08;15.80;;;6.50;;
42092;SDS011;28974;50.316;18.960;2023-10-09T08:18:27;14.27;;;6.25;;
42092;SDS011;28974;50.316;18.960;2023-10-09T08:30:35;9.65;;;3.88;;
42092;SDS011;28974;50.316;18.960;2023-10-09T08:42:52;14.10;;;5.38;;
42092;SDS011;28974;50.316;18.960;2023-10-09T08:54:58;14.23;;;4.90;;
42092;SDS011;28974;50.316;18.960;2023-10-09T09:06:58;8.30;;;4.13;;
42092;SDS011;28974;50.316;18.960;2023-10-09T09:18:59;8.97;;;3.97;;
42092;SDS011;28974;50.316;18.960;2023-10-09T09:31:09;12.32;;;5.63;;
42092;SDS011;28974;50.316;18.960;2023-10-09T09:43:22;16.23;;;7.88;;
42092;SDS011;28974;50.316;18.960;2023-10-09T09:55:24;14.30;;;7.05;;
42092;SDS011;28974;50.316;18.960;2023-10-09T10:07:31;16.45;;;6.30;;
42092;SDS011;28974;50.316;18.960;2023-10-09T10:32:02;9.35;;;4.93;;
42092;SDS011;28974;50.316;18.960;2023-10-09T10:44:12;17.90;;;6.93;;
42092;SDS011;28974;50.316;18.960;2023-10-09T10:56:41;16.75;;;8.25;;
42092;SDS011;28974;50.316;18.960;2023-10-09T11:08:45;20.02;;;8.63;;
42092;SDS011;28974;50.316;18.960;2023-10-09T11:21:00;17.33;;;8.25;;
42092;SDS011;28974;50.316;18.960;2023-10-09T11:33:06;15.10;;;6.47;;
42092;SDS011;28974;50.316;18.960;2023-10-09T11:45:24;9.82;;;5.18;;
42092;SDS011;28974;50.316;18.960;2023-10-09T11:57:25;8.23;;;4.30;;
42092;SDS011;28974;50.316;18.960;2023-10-09T12:09:30;11.65;;;5.43;;
42092;SDS011;28974;50.316;18.960;2023-10-09T12:21:31;13.90;;;6.68;;
42092;SDS011;28974;50.316;18.960;2023-10-09T12:33:31;10.18;;;6.78;;
42092;SDS011;28974;50.316;18.960;2023-10-09T12:45:33;10.13;;;5.50;;
42092;SDS011;28974;50.316;18.960;2023-10-09T12:57:34;16.50;;;7.68;;
42092;SDS011;28974;50.316;18.960;2023-10-09T13:09:34;16.45;;;8.02;;
42092;SDS011;28974;50.316;18.960;2023-10-09T13:21:35;16.40;;;8.20;;
42092;SDS011;28974;50.316;18.960;2023-10-09T13:33:42;17.48;;;8.05;;
42092;SDS011;28974;50.316;18.960;2023-10-09T13:45:42;19.67;;;14.23;;
42092;SDS011;28974;50.316;18.960;2023-10-09T13:57:49;20.02;;;11.07;;
42092;SDS011;28974;50.316;18.960;2023-10-09T14:09:49;21.77;;;11.88;;
42092;SDS011;28974;50.316;18.960;2023-10-09T14:22:07;32.03;;;14.45;;
42092;SDS011;28974;50.316;18.960;2023-10-09T14:34:07;27.85;;;16.35;;
42092;SDS011;28974;50.316;18.960;2023-10-09T14:46:12;33.17;;;18.50;;
42092;SDS011;28974;50.316;18.960;2023-10-09T14:58:13;53.67;;;33.00;;
42092;SDS011;28974;50.316;18.960;2023-10-09T15:10:13;35.50;;;21.10;;
42092;SDS011;28974;50.316;18.960;2023-10-09T15:22:18;38.92;;;23.27;;
42092;SDS011;28974;50.316;18.960;2023-10-09T15:34:20;53.70;;;27.88;;
42092;SDS011;28974;50.316;18.960;2023-10-09T15:46:21;60.95;;;32.50;;
42092;SDS011;28974;50.316;18.960;2023-10-09T15:58:23;94.82;;;45.67;;
42092;SDS011;28974;50.316;18.960;2023-10-09T16:10:24;60.05;;;30.83;;
42092;SDS011;28974;50.316;18.960;2023-10-09T16:22:25;56.17;;;28.80;;
42092;SDS011;28974;50.316;18.960;2023-10-09T16:34:28;69.68;;;32.42;;
42092;SDS011;28974;50.316;18.960;2023-10-09T16:46:29;96.93;;;42.10;;
42092;SDS011;28974;50.316;18.960;2023-10-09T16:58:29;81.85;;;40.80;;
42092;SDS011;28974;50.316;18.960;2023-10-09T17:10:33;108.97;;;51.63;;
42092;SDS011;28974;50.316;18.960;2023-10-09T17:22:35;119.20;;;53.90;;
42092;SDS011;28974;50.316;18.960;2023-10-09T17:34:35;120.60;;;50.60;;
42092;SDS011;28974;50.316;18.960;2023-10-09T17:46:37;104.30;;;45.80;;
42092;SDS011;28974;50.316;18.960;2023-10-09T17:58:42;127.05;;;52.75;;
42092;SDS011;28974;50.316;18.960;2023-10-09T18:10:49;150.30;;;54.17;;
42092;SDS011;28974;50.316;18.960;2023-10-09T18:22:55;135.35;;;56.33;;
42092;SDS011;28974;50.316;18.960;2023-10-09T18:34:59;130.13;;;50.30;;
42092;SDS011;28974;50.316;18.960;2023-10-09T18:47:00;140.48;;;50.03;;
42092;SDS011;28974;50.316;18.960;2023-10-09T18:59:00;134.10;;;55.05;;
42092;SDS011;28974;50.316;18.960;2023-10-09T19:11:01;147.52;;;54.63;;
42092;SDS011;28974;50.316;18.960;2023-10-09T19:23:01;138.40;;;58.25;;
42092;SDS011;28974;50.316;18.960;2023-10-09T19:35:04;138.73;;;59.75;;
42092;SDS011;28974;50.316;18.960;2023-10-09T19:47:04;110.97;;;46.63;;
42092;SDS011;28974;50.316;18.960;2023-10-09T19:59:05;127.85;;;48.17;;
42092;SDS011;28974;50.316;18.960;2023-10-09T20:11:06;107.18;;;48.05;;
42092;SDS011;28974;50.316;18.960;2023-10-09T20:23:07;127.50;;;48.53;;
42092;SDS011;28974;50.316;18.960;2023-10-09T20:35:07;137.82;;;53.60;;
42092;SDS011;28974;50.316;18.960;2023-10-09T20:47:11;123.30;;;49.00;;
42092;SDS011;28974;50.316;18.960;2023-10-09T20:59:11;136.90;;;54.53;;
42092;SDS011;28974;50.316;18.960;2023-10-09T21:11:12;130.20;;;54.83;;
42092;SDS011;28974;50.316;18.960;2023-10-09T21:23:12;127.25;;;50.58;;
42092;SDS011;28974;50.316;18.960;2023-10-09T21:35:17;110.00;;;47.90;;
42092;SDS011;28974;50.316;18.960;2023-10-09T21:47:17;103.10;;;44.63;;
42092;SDS011;28974;50.316;18.960;2023-10-09T21:59:18;102.57;;;45.13;;
42092;SDS011;28974;50.316;18.960;2023-10-09T22:11:18;88.53;;;39.75;;
42092;SDS011;28974;50.316;18.960;2023-10-09T22:23:19;80.07;;;35.33;;
42092;SDS011;28974;50.316;18.960;2023-10-09T22:35:19;83.53;;;36.28;;
42092;SDS011;28974;50.316;18.960;2023-10-09T22:47:19;88.65;;;41.88;;
42092;SDS011;28974;50.316;18.960;2023-10-09T22:59:22;89.07;;;42.13;;
42092;SDS011;28974;50.316;18.960;2023-10-09T23:11:26;84.38;;;37.80;;
42092;SDS011;28974;50.316;18.960;2023-10-09T23:23:27;92.95;;;41.22;;
42092;SDS011;28974;50.316;18.960;2023-10-09T23:35:29;84.00;;;38.20;;
42092;SDS011;28974;50.316;18.960;2023-10-09T23:47:44;81.25;;;37.72;;
42092;SDS011;28974;50.316;18.960;2023-10-09T23:59:47;79.10;;;36.20;;
